createdAt,value
2023-04-11T00:00:22.182Z,10.03
2023-04-11T00:02:48.900Z,10.01
2023-04-11T00:05:15.973Z,10.02
2023-04-11T00:07:42.601Z,10.03
2023-04-11T00:10:09.600Z,10.03
2023-04-11T00:12:36.178Z,10.04
2023-04-11T00:15:03.723Z,10.03
2023-04-11T00:17:31.817Z,10.01
2023-04-11T00:20:01.811Z,9.98
2023-04-11T00:22:28.363Z,9.92
2023-04-11T00:24:55.125Z,9.84
2023-04-11T00:27:22.120Z,9.95
2023-04-11T00:29:48.725Z,9.99
2023-04-11T00:32:15.470Z,9.99
2023-04-11T00:34:42.343Z,9.98
2023-04-11T00:37:08.845Z,9.93
2023-04-11T00:39:35.387Z,9.92
2023-04-11T00:42:07.684Z,9.91
2023-04-11T00:44:36.272Z,9.85
2023-04-11T00:47:06.568Z,9.80
2023-04-11T00:49:33.733Z,9.76
2023-04-11T00:52:00.789Z,9.71
2023-04-11T00:54:30.108Z,9.67
2023-04-11T00:56:59.696Z,9.62
2023-04-11T00:59:28.089Z,9.61
2023-04-11T01:01:55.631Z,9.61
2023-04-11T01:04:22.843Z,9.67
2023-04-11T01:06:53.003Z,9.75
2023-04-11T01:09:21.457Z,9.78
2023-04-11T01:11:49.788Z,9.82
2023-04-11T01:14:18.485Z,9.88
2023-04-11T01:16:50.747Z,9.91
2023-04-11T01:19:23.548Z,9.89
2023-04-11T01:21:52.049Z,9.91
2023-04-11T01:24:19.000Z,9.95
2023-04-11T01:26:45.976Z,9.99
2023-04-11T01:29:14.572Z,10.01
2023-04-11T01:31:41.204Z,10.07
2023-04-11T01:34:07.936Z,10.11
2023-04-11T01:36:34.728Z,10.14
2023-04-11T01:39:01.493Z,10.17
2023-04-11T01:41:30.424Z,10.19
2023-04-11T01:43:59.270Z,10.19
2023-04-11T01:46:26.093Z,10.20
2023-04-11T01:48:55.412Z,10.21
2023-04-11T01:51:22.221Z,10.21
2023-04-11T01:53:48.754Z,10.25
2023-04-11T01:56:15.539Z,10.26
2023-04-11T01:58:42.170Z,10.25
2023-04-11T02:01:09.188Z,10.23
2023-04-11T02:03:37.017Z,10.23
2023-04-11T02:06:04.069Z,10.17
2023-04-11T02:08:30.954Z,10.12
2023-04-11T02:10:57.452Z,10.10
2023-04-11T02:13:23.985Z,10.10
2023-04-11T02:19:03.737Z,10.09
2023-04-11T02:21:30.330Z,10.13
2023-04-11T02:23:58.428Z,10.14
2023-04-11T02:26:26.796Z,10.11
2023-04-11T02:28:55.965Z,10.09
2023-04-11T02:31:22.885Z,10.07
2023-04-11T02:33:49.455Z,10.08
2023-04-11T02:36:18.671Z,10.09
2023-04-11T02:38:45.360Z,10.09
2023-04-11T02:41:11.921Z,10.11
2023-04-11T02:43:38.749Z,10.08
2023-04-11T02:46:12.525Z,10.09
2023-04-11T02:48:42.007Z,10.09
2023-04-11T02:51:09.237Z,10.07
2023-04-11T02:53:35.834Z,10.12
2023-04-11T02:56:02.473Z,10.12
2023-04-11T02:58:29.190Z,10.10
2023-04-11T03:00:57.161Z,10.09
2023-04-11T03:03:23.936Z,10.07
2023-04-11T03:05:50.739Z,10.05
2023-04-11T03:08:22.041Z,10.06
2023-04-11T03:10:51.282Z,10.07
2023-04-11T03:13:18.671Z,10.08
2023-04-11T03:15:45.301Z,10.08
2023-04-11T03:18:12.394Z,10.06
2023-04-11T03:20:41.440Z,10.07
2023-04-11T03:23:08.691Z,10.04
2023-04-11T03:25:37.773Z,9.98
2023-04-11T03:28:05.518Z,9.96
2023-04-11T03:30:33.386Z,9.95
2023-04-11T03:33:00.935Z,9.94
2023-04-11T03:35:28.068Z,9.97
2023-04-11T03:37:54.661Z,9.99
2023-04-11T03:40:21.397Z,10.00
2023-04-11T03:42:52.067Z,10.01
2023-04-11T03:45:21.485Z,10.04
2023-04-11T03:47:48.465Z,10.07
2023-04-11T03:50:15.596Z,10.09
2023-04-11T03:52:44.624Z,10.09
2023-04-11T03:55:13.197Z,10.10
2023-04-11T03:57:39.787Z,10.12
2023-04-11T04:00:07.648Z,10.16
2023-04-11T04:02:42.179Z,10.17
2023-04-11T04:05:11.115Z,10.17
2023-04-11T04:07:39.544Z,10.18
2023-04-11T04:10:14.470Z,10.22
2023-04-11T04:12:41.729Z,10.22
2023-04-11T04:15:14.602Z,10.19
2023-04-11T04:17:42.193Z,10.22
2023-04-11T04:20:12.374Z,10.23
2023-04-11T04:22:39.707Z,10.14
2023-04-11T04:25:06.994Z,10.26
2023-04-11T04:27:34.966Z,10.38
2023-04-11T04:30:04.474Z,10.47
2023-04-11T04:33:12.430Z,10.40
2023-04-11T04:35:42.211Z,10.36
2023-04-11T04:38:08.980Z,10.40
2023-04-11T04:40:50.422Z,10.44
2023-04-11T04:43:22.599Z,10.53
2023-04-11T04:46:15.501Z,10.62
2023-04-11T04:48:48.777Z,10.71
2023-04-11T04:51:15.448Z,10.80
2023-04-11T04:53:42.167Z,10.94
2023-04-11T04:56:09.811Z,11.08
2023-04-11T04:58:41.225Z,11.13
2023-04-11T05:01:11.447Z,11.35
2023-04-11T05:03:39.019Z,11.48
2023-04-11T05:06:09.668Z,11.44
2023-04-11T05:08:36.715Z,11.55
2023-04-11T05:11:05.435Z,11.72
2023-04-11T05:13:34.320Z,11.78
2023-04-11T05:16:02.411Z,11.91
2023-04-11T05:18:30.615Z,12.02
2023-04-11T05:21:04.873Z,12.08
2023-04-11T05:23:38.186Z,12.23
2023-04-11T05:26:08.974Z,12.34
2023-04-11T05:28:36.171Z,12.54
2023-04-11T05:31:07.049Z,12.72
2023-04-11T05:33:34.269Z,12.81
2023-04-11T05:36:01.272Z,12.85
2023-04-11T05:38:27.899Z,12.96
2023-04-11T05:40:54.431Z,13.13
2023-04-11T05:43:21.314Z,13.33
2023-04-11T05:45:48.190Z,13.56
2023-04-11T05:48:19.584Z,13.57
2023-04-11T05:50:47.623Z,13.62
2023-04-11T05:53:14.184Z,13.85
2023-04-11T05:55:40.902Z,14.03
2023-04-11T05:58:09.299Z,13.99
2023-04-11T06:00:38.420Z,13.90
2023-04-11T06:03:07.974Z,13.79
2023-04-11T06:05:35.362Z,13.86
2023-04-11T06:08:04.271Z,13.91
2023-04-11T06:10:31.258Z,14.04
2023-04-11T06:12:58.225Z,14.21
2023-04-11T06:15:29.097Z,14.86
2023-04-11T06:17:56.066Z,15.51
2023-04-11T06:20:25.193Z,15.52
2023-04-11T06:22:52.138Z,15.73
2023-04-11T06:25:20.394Z,16.26
2023-04-11T06:27:48.060Z,16.93
2023-04-11T06:30:15.464Z,17.58
2023-04-11T06:32:42.367Z,18.07
2023-04-11T06:35:10.041Z,18.39
2023-04-11T06:37:36.823Z,18.66
2023-04-11T06:40:05.765Z,19.01
2023-04-11T06:42:32.627Z,19.48
2023-04-11T06:44:59.258Z,20.10
2023-04-11T06:47:26.020Z,20.64
2023-04-11T06:49:52.568Z,20.83
2023-04-11T06:52:19.135Z,20.89
2023-04-11T06:54:47.829Z,20.84
2023-04-11T06:57:14.482Z,21.11
2023-04-11T06:59:41.276Z,21.56
2023-04-11T07:02:08.239Z,21.81
2023-04-11T07:04:35.063Z,22.05
2023-04-11T07:07:01.891Z,22.15
2023-04-11T07:09:28.568Z,22.23
2023-04-11T07:11:55.157Z,22.57
2023-04-11T07:14:21.727Z,23.28
2023-04-11T07:16:48.276Z,24.15
2023-04-11T07:19:14.941Z,24.99
2023-04-11T07:21:42.024Z,25.09
2023-04-11T07:24:10.574Z,24.36
2023-04-11T07:26:38.589Z,24.21
2023-04-11T07:29:05.765Z,24.49
2023-04-11T07:31:33.232Z,24.72
2023-04-11T07:33:59.832Z,24.63
2023-04-11T07:36:26.744Z,24.87
2023-04-11T07:38:53.410Z,25.55
2023-04-11T07:41:20.069Z,26.46
2023-04-11T07:43:47.269Z,27.00
2023-04-11T07:46:15.118Z,26.89
2023-04-11T07:48:42.621Z,26.80
2023-04-11T07:51:09.480Z,27.31
2023-04-11T07:53:36.356Z,27.69
2023-04-11T07:56:03.181Z,26.99
2023-04-11T07:58:30.234Z,25.80
2023-04-11T08:00:56.885Z,24.97
2023-04-11T08:03:24.038Z,24.77
2023-04-11T08:05:52.247Z,24.92
2023-04-11T08:08:19.017Z,24.91
2023-04-11T08:10:45.794Z,24.32
2023-04-11T08:13:12.439Z,22.73
2023-04-11T08:15:39.261Z,21.66
2023-04-11T08:18:05.952Z,20.99
2023-04-11T08:20:32.737Z,21.17
2023-04-11T08:23:00.678Z,22.33
2023-04-11T08:25:27.562Z,23.55
2023-04-11T08:27:54.497Z,24.17
2023-04-11T08:30:21.661Z,24.60
2023-04-11T08:32:48.384Z,25.06
2023-04-11T08:35:15.364Z,25.12
2023-04-11T08:37:44.370Z,25.23
2023-04-11T08:40:11.652Z,24.70
2023-04-11T08:42:38.350Z,23.96
2023-04-11T08:45:08.794Z,23.90
2023-04-11T08:47:37.135Z,23.58
2023-04-11T08:50:06.592Z,23.66
2023-04-11T08:52:34.180Z,24.03
2023-04-11T08:55:02.124Z,24.53
2023-04-11T08:57:35.141Z,24.74
2023-04-11T09:00:19.285Z,24.05
2023-04-11T09:03:02.841Z,23.47
2023-04-11T09:05:35.034Z,23.75
2023-04-11T09:08:08.299Z,23.58
2023-04-11T09:10:36.345Z,23.67
2023-04-11T09:13:18.322Z,23.72
2023-04-11T09:15:45.217Z,23.79
2023-04-11T09:18:31.919Z,23.61
2023-04-11T09:21:04.416Z,24.35
2023-04-11T09:23:31.203Z,24.95
2023-04-11T09:25:58.443Z,25.36
2023-04-11T09:28:25.951Z,26.13
2023-04-11T09:30:54.494Z,26.91
2023-04-11T09:33:28.355Z,26.49
2023-04-11T09:35:56.770Z,26.74
2023-04-11T09:38:32.156Z,27.10
2023-04-11T09:41:00.662Z,27.45
2023-04-11T09:43:53.091Z,27.70
2023-04-11T09:46:21.421Z,27.77
2023-04-11T09:48:49.536Z,27.71
2023-04-11T09:51:31.889Z,27.75
2023-04-11T09:54:02.082Z,27.02
2023-04-11T09:56:30.581Z,26.90
2023-04-11T09:58:59.905Z,26.70
2023-04-11T10:01:27.412Z,25.58
2023-04-11T10:03:56.679Z,26.31
2023-04-11T10:06:41.362Z,27.09
2023-04-11T10:09:11.102Z,28.07
2023-04-11T10:11:42.361Z,27.68
2023-04-11T10:14:09.453Z,27.28
2023-04-11T10:16:37.445Z,27.41
2023-04-11T10:19:04.665Z,27.41
2023-04-11T10:21:36.541Z,25.94
2023-04-11T10:24:15.888Z,25.21
2023-04-11T10:26:51.704Z,25.43
2023-04-11T10:29:34.528Z,25.77
2023-04-11T10:32:17.334Z,25.04
2023-04-11T10:34:49.921Z,24.09
2023-04-11T10:37:34.704Z,23.92
2023-04-11T10:40:11.660Z,23.77
2023-04-11T10:42:41.030Z,23.15
2023-04-11T10:45:27.900Z,21.96
2023-04-11T10:48:05.930Z,20.98
2023-04-11T10:50:37.765Z,20.12
2023-04-11T10:53:09.433Z,19.83
2023-04-11T10:55:44.611Z,19.74
2023-04-11T10:58:22.436Z,19.57
2023-04-11T11:00:52.737Z,20.17
2023-04-11T11:03:19.682Z,21.25
2023-04-11T11:05:47.696Z,22.42
2023-04-11T11:08:14.500Z,22.80
2023-04-11T11:10:44.776Z,22.16
2023-04-11T11:13:22.053Z,21.07
2023-04-11T11:15:50.297Z,20.40
2023-04-11T11:18:18.445Z,19.69
2023-04-11T11:20:45.192Z,19.13
2023-04-11T11:23:14.710Z,18.74
2023-04-11T11:25:53.039Z,19.43
2023-04-11T11:28:19.677Z,20.49
2023-04-11T11:30:54.029Z,20.60
2023-04-11T11:33:26.900Z,20.29
2023-04-11T11:36:06.792Z,19.61
2023-04-11T11:38:33.654Z,18.84
2023-04-11T11:41:01.003Z,18.93
2023-04-11T11:43:35.178Z,19.93
2023-04-11T11:46:16.006Z,20.45
2023-04-11T11:48:57.133Z,19.72
2023-04-11T11:51:24.522Z,19.03
2023-04-11T11:54:08.763Z,18.87
2023-04-11T11:56:39.762Z,19.77
2023-04-11T11:59:07.616Z,20.58
2023-04-11T12:01:35.749Z,21.09
2023-04-11T12:04:04.580Z,21.58
2023-04-11T12:06:32.514Z,22.06
2023-04-11T12:09:09.599Z,22.75
2023-04-11T12:11:41.183Z,23.14
2023-04-11T12:14:08.795Z,22.22
2023-04-11T12:16:40.559Z,21.35
2023-04-11T12:19:08.684Z,20.54
2023-04-11T12:21:35.235Z,20.48
2023-04-11T12:24:01.855Z,20.71
2023-04-11T12:26:28.717Z,20.78
2023-04-11T12:28:55.550Z,20.73
2023-04-11T12:31:25.303Z,20.68
2023-04-11T12:33:52.280Z,20.41
2023-04-11T12:36:18.973Z,19.88
2023-04-11T12:38:45.658Z,19.35
2023-04-11T12:44:04.179Z,19.47
2023-04-11T12:44:22.842Z,19.32
2023-04-11T12:46:30.839Z,19.55
2023-04-11T12:48:58.016Z,19.37
2023-04-11T12:51:24.924Z,19.25
2023-04-11T12:53:52.839Z,19.25
2023-04-11T12:56:19.449Z,19.32
2023-04-11T12:58:46.398Z,19.22
2023-04-11T13:01:12.998Z,18.88
2023-04-11T13:03:39.711Z,18.58
2023-04-11T13:06:07.057Z,18.36
2023-04-11T13:08:33.638Z,18.14
2023-04-11T13:11:00.486Z,17.82
2023-04-11T13:13:27.125Z,17.60
2023-04-11T13:15:54.991Z,17.49
2023-04-11T13:18:21.911Z,17.37
2023-04-11T13:20:48.788Z,17.35
2023-04-11T13:23:17.204Z,17.40
2023-04-11T13:25:44.099Z,17.47
2023-04-11T13:28:10.685Z,17.53
2023-04-11T13:30:37.339Z,17.66
2023-04-11T13:33:04.186Z,17.69
2023-04-11T13:35:31.013Z,17.68
2023-04-11T13:37:57.806Z,17.64
2023-04-11T13:40:24.427Z,17.59
2023-04-11T13:42:52.202Z,17.61
2023-04-11T13:45:18.865Z,17.78
2023-04-11T13:47:45.760Z,17.98
2023-04-11T13:50:12.493Z,18.01
2023-04-11T13:52:39.738Z,17.94
2023-04-11T13:55:07.116Z,17.79
2023-04-11T13:57:33.692Z,17.66
2023-04-11T14:00:00.313Z,17.44
2023-04-11T14:02:27.066Z,17.28
2023-04-11T14:04:53.780Z,17.21
2023-04-11T14:07:20.457Z,17.18
2023-04-11T14:09:46.989Z,17.27
2023-04-11T14:12:13.613Z,17.43
2023-04-11T14:14:40.339Z,17.58
2023-04-11T14:17:07.068Z,17.70
2023-04-11T14:19:33.941Z,17.67
2023-04-11T14:22:00.713Z,17.54
2023-04-11T14:24:27.572Z,17.32
2023-04-11T14:26:54.260Z,17.21
2023-04-11T14:29:22.397Z,17.18
2023-04-11T14:31:50.213Z,17.21
2023-04-11T14:34:18.602Z,17.32
2023-04-11T14:36:45.614Z,17.40
2023-04-11T14:39:12.648Z,17.43
2023-04-11T14:41:39.513Z,17.44
2023-04-11T14:44:06.529Z,17.46
2023-04-11T14:46:34.954Z,17.35
2023-04-11T14:49:02.159Z,17.19
2023-04-11T14:51:29.849Z,17.07
2023-04-11T14:53:57.220Z,16.94
2023-04-11T14:56:24.940Z,16.83
2023-04-11T14:58:51.788Z,16.72
2023-04-11T15:01:20.128Z,16.59
2023-04-11T15:03:47.136Z,16.42
2023-04-11T15:06:14.049Z,16.27
2023-04-11T15:08:41.335Z,16.16
2023-04-11T15:11:08.343Z,16.08
2023-04-11T15:13:35.140Z,16.05
2023-04-11T15:16:05.716Z,16.04
2023-04-11T15:18:32.934Z,16.02
2023-04-11T15:21:00.658Z,16.00
2023-04-11T15:23:27.302Z,16.02
2023-04-11T15:25:59.481Z,16.05
2023-04-11T15:28:30.393Z,16.07
2023-04-11T15:30:57.411Z,16.02
2023-04-11T15:33:24.192Z,15.98
2023-04-11T15:35:53.834Z,15.95
2023-04-11T15:38:21.074Z,15.97
2023-04-11T15:40:51.893Z,15.97
2023-04-11T15:43:18.664Z,15.95
2023-04-11T15:45:45.288Z,15.94
2023-04-11T15:48:13.477Z,15.95
2023-04-11T15:50:43.964Z,15.94
2023-04-11T15:53:11.569Z,15.91
2023-04-11T15:55:40.776Z,15.86
2023-04-11T15:58:07.617Z,15.82
2023-04-11T16:00:39.326Z,15.80
2023-04-11T16:03:08.589Z,15.76
2023-04-11T16:05:38.327Z,15.70
2023-04-11T16:08:06.978Z,15.66
2023-04-11T16:10:33.918Z,15.58
2023-04-11T16:13:01.775Z,15.49
2023-04-11T16:15:28.414Z,15.38
2023-04-11T16:17:55.023Z,15.26
2023-04-11T16:20:22.911Z,15.15
2023-04-11T16:22:49.678Z,15.05
2023-04-11T16:25:19.448Z,14.95
2023-04-11T16:27:46.762Z,14.84
2023-04-11T16:30:13.937Z,14.76
2023-04-11T16:32:40.912Z,14.68
2023-04-11T16:35:08.369Z,14.62
2023-04-11T16:37:35.660Z,14.54
2023-04-11T16:40:02.722Z,14.47
2023-04-11T16:42:30.058Z,14.39
2023-04-11T16:44:56.655Z,14.32
2023-04-11T16:47:26.298Z,14.25
2023-04-11T16:49:53.606Z,14.17
2023-04-11T16:52:21.584Z,14.09
2023-04-11T16:54:48.356Z,14.00
2023-04-11T16:57:14.937Z,13.93
2023-04-11T16:59:41.912Z,13.84
2023-04-11T17:02:08.643Z,13.77
2023-04-11T17:04:35.566Z,13.67
2023-04-11T17:07:02.309Z,13.59
2023-04-11T17:09:29.569Z,13.50
2023-04-11T17:11:56.625Z,13.43
2023-04-11T17:14:24.550Z,13.33
2023-04-11T17:16:51.639Z,13.24
2023-04-11T17:19:18.287Z,13.15
2023-04-11T17:21:45.084Z,13.06
2023-04-11T17:24:11.654Z,12.97
2023-04-11T17:26:38.682Z,12.87
2023-04-11T17:29:06.525Z,12.77
2023-04-11T17:31:34.048Z,12.67
2023-04-11T17:34:00.720Z,12.57
2023-04-11T17:36:28.433Z,12.47
2023-04-11T17:38:55.121Z,12.38
2023-04-11T17:41:22.062Z,12.30
2023-04-11T17:43:48.572Z,12.21
2023-04-11T17:46:15.557Z,12.13
2023-04-11T17:48:42.431Z,12.05
2023-04-11T17:51:09.068Z,11.98
2023-04-11T17:53:36.066Z,11.92
2023-04-11T17:56:04.776Z,11.86
2023-04-11T17:58:31.886Z,11.82
2023-04-11T18:00:58.696Z,11.77
2023-04-11T18:03:26.243Z,11.72
2023-04-11T18:05:54.556Z,11.66
2023-04-11T18:08:36.188Z,11.60
2023-04-11T18:11:11.321Z,11.52
2023-04-11T18:13:37.967Z,11.45
2023-04-11T18:16:05.203Z,11.37
2023-04-11T18:18:31.952Z,11.29
2023-04-11T18:21:05.065Z,11.22
2023-04-11T18:23:33.879Z,11.15
2023-04-11T18:26:00.582Z,11.09
2023-04-11T18:28:27.243Z,11.04
2023-04-11T18:30:54.852Z,10.99
2023-04-11T18:33:21.723Z,10.96
2023-04-11T18:35:48.424Z,10.93
2023-04-11T18:38:17.337Z,10.89
2023-04-11T18:40:43.944Z,10.85
2023-04-11T18:43:10.706Z,10.79
2023-04-11T18:45:38.992Z,10.74
2023-04-11T18:48:06.461Z,10.95
2023-04-11T18:50:38.939Z,11.81
2023-04-11T18:53:11.875Z,12.43
2023-04-11T18:55:40.901Z,12.15
2023-04-11T18:58:09.519Z,11.74
2023-04-11T19:00:39.033Z,11.40
2023-04-11T19:03:07.172Z,11.14
2023-04-11T19:05:34.471Z,10.93
2023-04-11T19:08:01.626Z,10.76
2023-04-11T19:10:28.481Z,10.62
2023-04-11T19:12:55.427Z,10.63
2023-04-11T19:15:22.651Z,11.34
2023-04-11T19:17:49.623Z,12.05
2023-04-11T19:20:16.745Z,12.38
2023-04-11T19:22:43.579Z,12.01
2023-04-11T19:25:11.650Z,11.51
2023-04-11T19:27:41.306Z,11.10
2023-04-11T19:30:10.335Z,10.79
2023-04-11T19:32:43.438Z,10.53
2023-04-11T19:35:11.812Z,10.32
2023-04-11T19:37:39.748Z,10.31
2023-04-11T19:40:13.602Z,11.03
2023-04-11T19:42:42.158Z,11.94
2023-04-11T19:45:10.513Z,12.44
2023-04-11T19:47:39.164Z,11.97
2023-04-11T19:50:13.557Z,11.34
2023-04-11T19:52:41.580Z,10.83
2023-04-11T19:55:09.452Z,10.47
2023-04-11T19:57:38.753Z,10.17
2023-04-11T20:00:13.790Z,10.07
2023-04-11T20:02:44.996Z,10.69
2023-04-11T20:05:13.786Z,11.43
2023-04-11T20:07:40.524Z,12.08
2023-04-11T20:10:08.291Z,12.30
2023-04-11T20:12:35.032Z,11.71
2023-04-11T20:15:02.438Z,11.04
2023-04-11T20:17:29.859Z,10.53
2023-04-11T20:19:56.838Z,10.35
2023-04-11T20:22:25.863Z,10.91
2023-04-11T20:24:52.777Z,11.46
2023-04-11T20:27:19.663Z,11.84
2023-04-11T20:29:47.339Z,11.99
2023-04-11T20:32:14.281Z,11.45
2023-04-11T20:34:41.463Z,10.78
2023-04-11T20:37:09.104Z,10.27
2023-04-11T20:39:36.568Z,9.86
2023-04-11T20:42:03.584Z,9.71
2023-04-11T20:44:30.511Z,10.27
2023-04-11T20:46:57.182Z,10.99
2023-04-11T20:49:28.284Z,11.47
2023-04-11T20:51:55.236Z,11.84
2023-04-11T20:54:22.593Z,12.38
2023-04-11T20:56:49.420Z,11.80
2023-04-11T20:59:16.250Z,10.97
2023-04-11T21:01:44.100Z,10.31
2023-04-11T21:04:11.646Z,9.81
2023-04-11T21:06:38.605Z,9.86
2023-04-11T21:09:05.979Z,11.09
2023-04-11T21:11:32.860Z,11.99
2023-04-11T21:13:59.634Z,12.19
2023-04-11T21:16:26.620Z,11.49
2023-04-11T21:18:53.289Z,10.69
2023-04-11T21:21:20.765Z,10.09
2023-04-11T21:23:47.643Z,9.82
2023-04-11T21:26:14.445Z,10.38
2023-04-11T21:28:41.202Z,11.04
2023-04-11T21:31:07.902Z,11.51
2023-04-11T21:33:35.047Z,11.85
2023-04-11T21:36:01.873Z,11.99
2023-04-11T21:38:28.936Z,11.30
2023-04-11T21:40:57.983Z,10.55
2023-04-11T21:43:25.150Z,9.96
2023-04-11T21:45:52.767Z,9.65
2023-04-11T21:48:19.847Z,10.16
2023-04-11T21:50:46.677Z,10.70
2023-04-11T21:53:14.183Z,11.10
2023-04-11T21:55:46.297Z,11.40
2023-04-11T21:58:26.313Z,11.59
2023-04-11T22:00:56.069Z,11.52
2023-04-11T22:03:23.654Z,10.85
2023-04-11T22:05:52.395Z,10.12
2023-04-11T22:08:22.250Z,9.70
2023-04-11T22:10:50.732Z,10.14
2023-04-11T22:13:19.925Z,10.76
2023-04-11T22:15:48.913Z,11.21
2023-04-11T22:18:15.868Z,11.46
2023-04-11T22:20:44.069Z,11.51
2023-04-11T22:23:13.525Z,10.88
2023-04-11T22:25:44.210Z,10.14
2023-04-11T22:28:15.645Z,9.70
2023-04-11T22:30:44.078Z,10.08
2023-04-11T22:33:13.735Z,10.59
2023-04-11T22:35:40.833Z,11.14
2023-04-11T22:38:07.513Z,11.56
2023-04-11T22:40:34.934Z,11.59
2023-04-11T22:43:02.843Z,10.91
2023-04-11T22:45:29.360Z,10.15
2023-04-11T22:47:59.975Z,9.68
2023-04-11T22:50:26.739Z,10.13
2023-04-11T22:52:54.805Z,10.93
2023-04-11T22:55:24.802Z,11.32
2023-04-11T22:57:51.543Z,11.69
2023-04-11T23:00:18.951Z,10.97
2023-04-11T23:02:45.625Z,9.84
2023-04-11T23:05:12.182Z,9.14
2023-04-11T23:07:38.824Z,9.42
2023-04-11T23:10:10.526Z,9.98
2023-04-11T23:12:37.130Z,10.39
2023-04-11T23:15:04.284Z,10.72
2023-04-11T23:17:30.826Z,10.97
2023-04-11T23:19:59.687Z,11.15
2023-04-11T23:22:26.599Z,11.29
2023-04-11T23:24:53.862Z,11.37
2023-04-11T23:27:20.980Z,11.46
2023-04-11T23:30:51.900Z,11.60
2023-04-11T23:33:25.771Z,11.82
2023-04-11T23:35:53.200Z,12.01
2023-04-11T23:38:19.823Z,12.10
2023-04-11T23:40:46.344Z,11.47
2023-04-11T23:43:12.880Z,10.71
2023-04-11T23:45:39.434Z,10.29
2023-04-11T23:48:06.920Z,10.70
2023-04-11T23:50:33.528Z,11.24
2023-04-11T23:53:00.517Z,11.77
2023-04-11T23:55:27.116Z,12.10
2023-04-11T23:57:54.148Z,11.95
